sensor_id;sensor_type;location;lat;lon;timestamp;temperature;humidity
14798;DHT22;7490;63.708;20.368;2022-09-17T00:02:01;14.10;99.90
14798;DHT22;7490;63.708;20.368;2022-09-17T00:04:27;14.00;99.90
14798;DHT22;7490;63.708;20.368;2022-09-17T00:06:53;14.00;99.90
14798;DHT22;7490;63.708;20.368;2022-09-17T00:09:19;14.10;99.90
14798;DHT22;7490;63.708;20.368;2022-09-17T00:11:44;14.00;99.90
14798;DHT22;7490;63.708;20.368;2022-09-17T00:14:14;14.00;99.90
14798;DHT22;7490;63.708;20.368;2022-09-17T00:16:42;14.00;99.90
14798;DHT22;7490;63.708;20.368;2022-09-17T00:19:14;14.00;99.90
14798;DHT22;7490;63.708;20.368;2022-09-17T00:21:41;14.00;99.90
14798;DHT22;7490;63.708;20.368;2022-09-17T00:24:06;14.00;99.90
14798;DHT22;7490;63.708;20.368;2022-09-17T00:26:33;14.00;99.90
14798;DHT22;7490;63.708;20.368;2022-09-17T00:28:59;13.90;99.90
14798;DHT22;7490;63.708;20.368;2022-09-17T00:31:26;13.90;99.90
14798;DHT22;7490;63.708;20.368;2022-09-17T00:33:53;13.90;99.90
14798;DHT22;7490;63.708;20.368;2022-09-17T00:36:19;13.90;99.90
14798;DHT22;7490;63.708;20.368;2022-09-17T00:38:50;13.80;99.90
14798;DHT22;7490;63.708;20.368;2022-09-17T00:41:15;13.80;99.90
14798;DHT22;7490;63.708;20.368;2022-09-17T00:43:45;13.80;99.90
14798;DHT22;7490;63.708;20.368;2022-09-17T00:48:46;13.80;99.90
14798;DHT22;7490;63.708;20.368;2022-09-17T00:51:14;13.90;99.90
14798;DHT22;7490;63.708;20.368;2022-09-17T00:53:43;13.90;99.90
14798;DHT22;7490;63.708;20.368;2022-09-17T00:56:29;13.90;99.90
14798;DHT22;7490;63.708;20.368;2022-09-17T00:58:56;13.90;99.90
14798;DHT22;7490;63.708;20.368;2022-09-17T01:01:22;13.90;99.90
14798;DHT22;7490;63.708;20.368;2022-09-17T01:03:48;13.90;99.90
14798;DHT22;7490;63.708;20.368;2022-09-17T01:09:10;13.90;99.90
14798;DHT22;7490;63.708;20.368;2022-09-17T01:16:51;14.00;99.90
14798;DHT22;7490;63.708;20.368;2022-09-17T01:30:38;14.00;99.90
14798;DHT22;7490;63.708;20.368;2022-09-17T01:41:55;14.00;99.90
14798;DHT22;7490;63.708;20.368;2022-09-17T01:49:39;14.00;99.90
14798;DHT22;7490;63.708;20.368;2022-09-17T01:52:08;14.00;99.90
14798;DHT22;7490;63.708;20.368;2022-09-17T01:54:51;14.00;99.90
14798;DHT22;7490;63.708;20.368;2022-09-17T01:57:57;14.00;99.90
14798;DHT22;7490;63.708;20.368;2022-09-17T02:00:25;14.10;99.90
14798;DHT22;7490;63.708;20.368;2022-09-17T02:03:14;14.10;99.90
14798;DHT22;7490;63.708;20.368;2022-09-17T02:05:47;14.10;99.90
14798;DHT22;7490;63.708;20.368;2022-09-17T02:08:20;14.00;99.90
14798;DHT22;7490;63.708;20.368;2022-09-17T02:11:08;14.10;99.90
14798;DHT22;7490;63.708;20.368;2022-09-17T02:16:29;14.10;99.90
14798;DHT22;7490;63.708;20.368;2022-09-17T02:19:03;14.10;99.90
14798;DHT22;7490;63.708;20.368;2022-09-17T02:24:10;14.10;99.90
14798;DHT22;7490;63.708;20.368;2022-09-17T02:26:39;14.10;99.90
14798;DHT22;7490;63.708;20.368;2022-09-17T02:29:18;14.10;99.90
14798;DHT22;7490;63.708;20.368;2022-09-17T02:31:47;14.10;99.90
14798;DHT22;7490;63.708;20.368;2022-09-17T02:34:13;14.10;99.90
14798;DHT22;7490;63.708;20.368;2022-09-17T02:36:39;14.10;99.90
14798;DHT22;7490;63.708;20.368;2022-09-17T02:39:04;14.10;99.90
14798;DHT22;7490;63.708;20.368;2022-09-17T02:50:29;14.00;99.90
14798;DHT22;7490;63.708;20.368;2022-09-17T02:59:20;14.00;99.90
14798;DHT22;7490;63.708;20.368;2022-09-17T03:01:19;14.00;99.90
14798;DHT22;7490;63.708;20.368;2022-09-17T03:03:48;14.00;99.90
14798;DHT22;7490;63.708;20.368;2022-09-17T03:06:16;14.00;99.90
14798;DHT22;7490;63.708;20.368;2022-09-17T03:08:42;14.00;99.90
14798;DHT22;7490;63.708;20.368;2022-09-17T03:11:10;14.00;99.90
14798;DHT22;7490;63.708;20.368;2022-09-17T03:13:37;14.00;99.90
14798;DHT22;7490;63.708;20.368;2022-09-17T03:16:04;14.00;99.90
14798;DHT22;7490;63.708;20.368;2022-09-17T03:18:31;14.00;99.90
14798;DHT22;7490;63.708;20.368;2022-09-17T03:20:56;14.00;99.90
14798;DHT22;7490;63.708;20.368;2022-09-17T03:23:22;14.00;99.90
14798;DHT22;7490;63.708;20.368;2022-09-17T03:25:48;14.00;99.90
14798;DHT22;7490;63.708;20.368;2022-09-17T03:28:16;14.00;99.90
14798;DHT22;7490;63.708;20.368;2022-09-17T03:30:43;14.10;99.90
14798;DHT22;7490;63.708;20.368;2022-09-17T03:33:09;14.10;99.90
14798;DHT22;7490;63.708;20.368;2022-09-17T03:35:35;14.10;99.90
14798;DHT22;7490;63.708;20.368;2022-09-17T03:38:00;14.10;99.90
14798;DHT22;7490;63.708;20.368;2022-09-17T03:40:26;14.10;99.90
14798;DHT22;7490;63.708;20.368;2022-09-17T03:42:52;14.10;99.90
14798;DHT22;7490;63.708;20.368;2022-09-17T03:45:17;14.20;99.90
14798;DHT22;7490;63.708;20.368;2022-09-17T03:47:43;14.20;99.90
14798;DHT22;7490;63.708;20.368;2022-09-17T03:50:09;14.20;99.90
14798;DHT22;7490;63.708;20.368;2022-09-17T03:52:34;14.20;99.90
14798;DHT22;7490;63.708;20.368;2022-09-17T03:55:01;14.20;99.90
14798;DHT22;7490;63.708;20.368;2022-09-17T03:57:26;14.20;99.90
14798;DHT22;7490;63.708;20.368;2022-09-17T03:59:52;14.20;99.90
14798;DHT22;7490;63.708;20.368;2022-09-17T04:02:18;14.20;99.90
14798;DHT22;7490;63.708;20.368;2022-09-17T04:04:43;14.20;99.90
14798;DHT22;7490;63.708;20.368;2022-09-17T04:07:09;14.20;99.90
14798;DHT22;7490;63.708;20.368;2022-09-17T04:09:35;14.20;99.90
14798;DHT22;7490;63.708;20.368;2022-09-17T04:12:01;14.20;99.90
14798;DHT22;7490;63.708;20.368;2022-09-17T04:14:26;14.20;99.90
14798;DHT22;7490;63.708;20.368;2022-09-17T04:16:52;14.20;99.90
14798;DHT22;7490;63.708;20.368;2022-09-17T04:19:18;14.20;99.90
14798;DHT22;7490;63.708;20.368;2022-09-17T04:21:43;14.20;99.90
14798;DHT22;7490;63.708;20.368;2022-09-17T04:24:09;14.20;99.90
14798;DHT22;7490;63.708;20.368;2022-09-17T04:26:35;14.20;99.90
14798;DHT22;7490;63.708;20.368;2022-09-17T04:29:00;14.20;99.90
14798;DHT22;7490;63.708;20.368;2022-09-17T04:31:26;14.20;99.90
14798;DHT22;7490;63.708;20.368;2022-09-17T04:33:52;14.20;99.90
14798;DHT22;7490;63.708;20.368;2022-09-17T04:36:18;14.20;99.90
14798;DHT22;7490;63.708;20.368;2022-09-17T04:38:47;14.20;99.90
14798;DHT22;7490;63.708;20.368;2022-09-17T04:41:13;14.20;99.90
14798;DHT22;7490;63.708;20.368;2022-09-17T04:43:38;14.20;99.90
14798;DHT22;7490;63.708;20.368;2022-09-17T04:46:04;14.20;99.90
14798;DHT22;7490;63.708;20.368;2022-09-17T04:48:30;14.20;99.90
14798;DHT22;7490;63.708;20.368;2022-09-17T04:50:55;14.30;99.90
14798;DHT22;7490;63.708;20.368;2022-09-17T04:53:21;14.30;99.90
14798;DHT22;7490;63.708;20.368;2022-09-17T04:55:47;14.30;99.90
14798;DHT22;7490;63.708;20.368;2022-09-17T04:58:13;14.30;99.90
14798;DHT22;7490;63.708;20.368;2022-09-17T05:00:38;14.30;99.90
14798;DHT22;7490;63.708;20.368;2022-09-17T05:03:06;14.30;99.90
14798;DHT22;7490;63.708;20.368;2022-09-17T05:05:31;14.40;99.90
14798;DHT22;7490;63.708;20.368;2022-09-17T05:07:57;14.40;99.90
14798;DHT22;7490;63.708;20.368;2022-09-17T05:10:23;14.30;99.90
14798;DHT22;7490;63.708;20.368;2022-09-17T05:12:53;14.40;99.90
14798;DHT22;7490;63.708;20.368;2022-09-17T05:15:20;14.40;99.90
14798;DHT22;7490;63.708;20.368;2022-09-17T05:17:46;14.40;99.90
14798;DHT22;7490;63.708;20.368;2022-09-17T05:20:13;14.40;99.90
14798;DHT22;7490;63.708;20.368;2022-09-17T05:22:50;14.40;99.90
14798;DHT22;7490;63.708;20.368;2022-09-17T05:25:18;14.40;99.90
14798;DHT22;7490;63.708;20.368;2022-09-17T05:27:45;14.40;99.90
14798;DHT22;7490;63.708;20.368;2022-09-17T05:30:11;14.40;99.90
14798;DHT22;7490;63.708;20.368;2022-09-17T05:32:37;14.40;99.90
14798;DHT22;7490;63.708;20.368;2022-09-17T05:35:05;14.50;99.90
14798;DHT22;7490;63.708;20.368;2022-09-17T05:37:30;14.50;99.90
14798;DHT22;7490;63.708;20.368;2022-09-17T05:39:56;14.60;99.90
14798;DHT22;7490;63.708;20.368;2022-09-17T05:42:22;14.60;99.90
14798;DHT22;7490;63.708;20.368;2022-09-17T05:44:47;14.70;99.90
14798;DHT22;7490;63.708;20.368;2022-09-17T05:47:13;14.70;99.90
14798;DHT22;7490;63.708;20.368;2022-09-17T05:49:39;14.70;99.90
14798;DHT22;7490;63.708;20.368;2022-09-17T05:52:05;14.70;99.90
14798;DHT22;7490;63.708;20.368;2022-09-17T05:54:30;14.60;99.90
14798;DHT22;7490;63.708;20.368;2022-09-17T05:56:56;14.60;99.90
14798;DHT22;7490;63.708;20.368;2022-09-17T05:59:22;14.60;99.90
14798;DHT22;7490;63.708;20.368;2022-09-17T06:01:48;14.60;99.90
14798;DHT22;7490;63.708;20.368;2022-09-17T06:04:15;14.50;99.90
14798;DHT22;7490;63.708;20.368;2022-09-17T06:06:42;14.50;99.90
14798;DHT22;7490;63.708;20.368;2022-09-17T06:09:08;14.50;99.90
14798;DHT22;7490;63.708;20.368;2022-09-17T06:11:35;14.40;99.90
14798;DHT22;7490;63.708;20.368;2022-09-17T06:14:01;14.40;99.90
14798;DHT22;7490;63.708;20.368;2022-09-17T06:16:27;14.40;99.90
14798;DHT22;7490;63.708;20.368;2022-09-17T06:18:53;14.40;99.90
14798;DHT22;7490;63.708;20.368;2022-09-17T06:21:19;14.40;99.90
14798;DHT22;7490;63.708;20.368;2022-09-17T06:23:46;14.40;99.90
14798;DHT22;7490;63.708;20.368;2022-09-17T06:26:12;14.40;99.90
14798;DHT22;7490;63.708;20.368;2022-09-17T06:28:38;14.40;99.90
14798;DHT22;7490;63.708;20.368;2022-09-17T06:31:06;14.40;99.70
14798;DHT22;7490;63.708;20.368;2022-09-17T06:33:32;14.40;99.70
14798;DHT22;7490;63.708;20.368;2022-09-17T06:36:03;14.40;99.80
14798;DHT22;7490;63.708;20.368;2022-09-17T06:38:31;14.40;99.80
14798;DHT22;7490;63.708;20.368;2022-09-17T06:40:57;14.50;99.90
14798;DHT22;7490;63.708;20.368;2022-09-17T06:43:24;14.60;99.90
14798;DHT22;7490;63.708;20.368;2022-09-17T06:46:01;14.70;99.80
14798;DHT22;7490;63.708;20.368;2022-09-17T06:48:28;14.70;99.80
14798;DHT22;7490;63.708;20.368;2022-09-17T06:50:55;14.90;99.70
14798;DHT22;7490;63.708;20.368;2022-09-17T06:53:22;14.90;99.60
14798;DHT22;7490;63.708;20.368;2022-09-17T06:55:48;15.00;99.60
14798;DHT22;7490;63.708;20.368;2022-09-17T06:58:14;15.10;99.60
14798;DHT22;7490;63.708;20.368;2022-09-17T07:00:40;15.20;99.40
14798;DHT22;7490;63.708;20.368;2022-09-17T07:03:06;15.30;99.10
14798;DHT22;7490;63.708;20.368;2022-09-17T07:05:31;15.20;99.00
14798;DHT22;7490;63.708;20.368;2022-09-17T07:08:02;15.20;98.90
14798;DHT22;7490;63.708;20.368;2022-09-17T07:10:29;15.20;98.80
14798;DHT22;7490;63.708;20.368;2022-09-17T07:12:55;15.10;98.90
14798;DHT22;7490;63.708;20.368;2022-09-17T07:15:21;15.10;99.00
14798;DHT22;7490;63.708;20.368;2022-09-17T07:17:46;15.10;99.10
14798;DHT22;7490;63.708;20.368;2022-09-17T07:20:13;15.10;99.10
14798;DHT22;7490;63.708;20.368;2022-09-17T07:22:39;15.10;99.30
14798;DHT22;7490;63.708;20.368;2022-09-17T07:25:05;15.10;99.30
14798;DHT22;7490;63.708;20.368;2022-09-17T07:27:31;15.20;99.50
14798;DHT22;7490;63.708;20.368;2022-09-17T07:29:57;15.20;99.60
14798;DHT22;7490;63.708;20.368;2022-09-17T07:32:23;15.40;99.90
14798;DHT22;7490;63.708;20.368;2022-09-17T07:34:49;15.60;99.80
14798;DHT22;7490;63.708;20.368;2022-09-17T07:37:16;15.80;99.80
14798;DHT22;7490;63.708;20.368;2022-09-17T07:39:41;16.10;99.90
14798;DHT22;7490;63.708;20.368;2022-09-17T07:42:09;16.40;99.60
14798;DHT22;7490;63.708;20.368;2022-09-17T07:44:35;16.70;98.80
14798;DHT22;7490;63.708;20.368;2022-09-17T07:47:01;16.80;98.00
14798;DHT22;7490;63.708;20.368;2022-09-17T07:49:26;16.80;97.70
14798;DHT22;7490;63.708;20.368;2022-09-17T07:51:52;16.80;97.80
14798;DHT22;7490;63.708;20.368;2022-09-17T07:54:19;16.90;98.20
14798;DHT22;7490;63.708;20.368;2022-09-17T07:56:45;17.10;97.90
14798;DHT22;7490;63.708;20.368;2022-09-17T07:59:11;17.30;97.50
14798;DHT22;7490;63.708;20.368;2022-09-17T08:01:37;17.40;97.30
14798;DHT22;7490;63.708;20.368;2022-09-17T08:04:03;17.60;97.50
14798;DHT22;7490;63.708;20.368;2022-09-17T08:06:29;17.90;97.00
14798;DHT22;7490;63.708;20.368;2022-09-17T08:08:56;18.20;96.50
14798;DHT22;7490;63.708;20.368;2022-09-17T08:11:27;18.70;97.10
14798;DHT22;7490;63.708;20.368;2022-09-17T08:13:53;19.70;96.20
14798;DHT22;7490;63.708;20.368;2022-09-17T08:16:20;20.90;95.00
14798;DHT22;7490;63.708;20.368;2022-09-17T08:18:47;22.00;93.30
14798;DHT22;7490;63.708;20.368;2022-09-17T08:21:17;22.90;90.90
14798;DHT22;7490;63.708;20.368;2022-09-17T08:23:43;22.90;87.40
14798;DHT22;7490;63.708;20.368;2022-09-17T08:26:18;22.60;85.20
14798;DHT22;7490;63.708;20.368;2022-09-17T08:28:49;22.00;84.40
14798;DHT22;7490;63.708;20.368;2022-09-17T08:31:17;21.30;84.50
14798;DHT22;7490;63.708;20.368;2022-09-17T08:33:44;20.70;85.10
14798;DHT22;7490;63.708;20.368;2022-09-17T08:36:11;20.10;86.30
14798;DHT22;7490;63.708;20.368;2022-09-17T08:38:38;19.60;87.50
14798;DHT22;7490;63.708;20.368;2022-09-17T08:49:27;18.40;90.40
14798;DHT22;7490;63.708;20.368;2022-09-17T08:54:35;18.10;90.90
14798;DHT22;7490;63.708;20.368;2022-09-17T09:00:10;17.90;91.40
14798;DHT22;7490;63.708;20.368;2022-09-17T09:08:04;17.40;91.70
14798;DHT22;7490;63.708;20.368;2022-09-17T09:10:44;17.20;91.90
14798;DHT22;7490;63.708;20.368;2022-09-17T09:13:14;17.00;92.00
14798;DHT22;7490;63.708;20.368;2022-09-17T09:15:46;16.90;92.50
14798;DHT22;7490;63.708;20.368;2022-09-17T09:18:29;16.80;92.70
14798;DHT22;7490;63.708;20.368;2022-09-17T09:21:17;16.80;93.00
14798;DHT22;7490;63.708;20.368;2022-09-17T09:23:57;16.80;93.30
14798;DHT22;7490;63.708;20.368;2022-09-17T09:26:44;17.00;93.80
14798;DHT22;7490;63.708;20.368;2022-09-17T09:34:32;18.50;92.50
14798;DHT22;7490;63.708;20.368;2022-09-17T09:37:25;18.70;91.80
14798;DHT22;7490;63.708;20.368;2022-09-17T09:39:54;18.50;91.30
14798;DHT22;7490;63.708;20.368;2022-09-17T09:44:51;18.10;91.30
14798;DHT22;7490;63.708;20.368;2022-09-17T09:53:52;17.70;92.60
14798;DHT22;7490;63.708;20.368;2022-09-17T09:58:32;18.10;92.70
14798;DHT22;7490;63.708;20.368;2022-09-17T10:00:58;18.30;92.40
14798;DHT22;7490;63.708;20.368;2022-09-17T10:03:32;18.70;92.80
14798;DHT22;7490;63.708;20.368;2022-09-17T10:06:07;19.20;91.70
14798;DHT22;7490;63.708;20.368;2022-09-17T10:08:36;19.40;91.10
14798;DHT22;7490;63.708;20.368;2022-09-17T10:11:04;19.40;90.70
14798;DHT22;7490;63.708;20.368;2022-09-17T10:13:35;19.30;90.70
14798;DHT22;7490;63.708;20.368;2022-09-17T10:16:26;19.20;90.60
14798;DHT22;7490;63.708;20.368;2022-09-17T10:21:34;19.20;90.70
14798;DHT22;7490;63.708;20.368;2022-09-17T10:24:02;19.20;90.60
14798;DHT22;7490;63.708;20.368;2022-09-17T10:26:34;19.10;90.20
14798;DHT22;7490;63.708;20.368;2022-09-17T10:29:03;19.00;90.30
14798;DHT22;7490;63.708;20.368;2022-09-17T10:31:50;19.00;90.20
14798;DHT22;7490;63.708;20.368;2022-09-17T10:34:21;18.90;90.40
14798;DHT22;7490;63.708;20.368;2022-09-17T10:36:48;18.80;90.10
14798;DHT22;7490;63.708;20.368;2022-09-17T10:42:13;18.30;90.10
14798;DHT22;7490;63.708;20.368;2022-09-17T10:44:56;18.20;90.40
14798;DHT22;7490;63.708;20.368;2022-09-17T10:47:29;18.10;90.60
14798;DHT22;7490;63.708;20.368;2022-09-17T10:49:58;18.00;90.50
14798;DHT22;7490;63.708;20.368;2022-09-17T10:52:31;17.80;90.50
14798;DHT22;7490;63.708;20.368;2022-09-17T11:00:55;17.10;90.80
14798;DHT22;7490;63.708;20.368;2022-09-17T11:11:53;16.20;92.10
14798;DHT22;7490;63.708;20.368;2022-09-17T11:17:20;16.10;92.60
14798;DHT22;7490;63.708;20.368;2022-09-17T11:19:58;16.00;92.80
14798;DHT22;7490;63.708;20.368;2022-09-17T11:31:12;16.90;93.50
14798;DHT22;7490;63.708;20.368;2022-09-17T11:39:33;17.30;92.80
14798;DHT22;7490;63.708;20.368;2022-09-17T11:42:03;17.40;92.40
14798;DHT22;7490;63.708;20.368;2022-09-17T11:44:37;17.40;92.40
14798;DHT22;7490;63.708;20.368;2022-09-17T11:47:24;17.50;92.30
14798;DHT22;7490;63.708;20.368;2022-09-17T11:50:05;17.60;91.80
14798;DHT22;7490;63.708;20.368;2022-09-17T11:53:03;17.50;91.60
14798;DHT22;7490;63.708;20.368;2022-09-17T11:58:41;17.70;91.80
14798;DHT22;7490;63.708;20.368;2022-09-17T12:01:31;17.80;91.40
14798;DHT22;7490;63.708;20.368;2022-09-17T12:06:53;17.80;91.10
14798;DHT22;7490;63.708;20.368;2022-09-17T12:09:25;17.90;91.10
14798;DHT22;7490;63.708;20.368;2022-09-17T12:12:06;17.90;90.80
14798;DHT22;7490;63.708;20.368;2022-09-17T12:14:45;17.90;90.70
14798;DHT22;7490;63.708;20.368;2022-09-17T12:17:19;17.90;90.70
14798;DHT22;7490;63.708;20.368;2022-09-17T12:19:52;17.80;90.40
14798;DHT22;7490;63.708;20.368;2022-09-17T12:22:29;17.80;90.20
14798;DHT22;7490;63.708;20.368;2022-09-17T12:24:56;17.70;90.10
14798;DHT22;7490;63.708;20.368;2022-09-17T12:35:53;17.10;90.30
14798;DHT22;7490;63.708;20.368;2022-09-17T12:41:19;17.10;90.60
14798;DHT22;7490;63.708;20.368;2022-09-17T12:50:24;17.10;90.20
14798;DHT22;7490;63.708;20.368;2022-09-17T13:01:37;16.40;90.20
14798;DHT22;7490;63.708;20.368;2022-09-17T13:18:26;15.80;90.80
14798;DHT22;7490;63.708;20.368;2022-09-17T13:21:05;15.80;91.00
14798;DHT22;7490;63.708;20.368;2022-09-17T13:23:45;15.80;91.00
14798;DHT22;7490;63.708;20.368;2022-09-17T13:26:14;15.90;91.10
14798;DHT22;7490;63.708;20.368;2022-09-17T13:28:48;15.90;90.90
14798;DHT22;7490;63.708;20.368;2022-09-17T13:31:45;16.00;90.80
14798;DHT22;7490;63.708;20.368;2022-09-17T13:36:54;16.00;90.80
14798;DHT22;7490;63.708;20.368;2022-09-17T13:42:11;16.00;90.60
14798;DHT22;7490;63.708;20.368;2022-09-17T13:44:41;16.00;90.70
14798;DHT22;7490;63.708;20.368;2022-09-17T13:47:19;16.00;90.70
14798;DHT22;7490;63.708;20.368;2022-09-17T13:49:49;15.90;90.70
14798;DHT22;7490;63.708;20.368;2022-09-17T13:52:54;15.90;90.70
14798;DHT22;7490;63.708;20.368;2022-09-17T13:55:36;15.90;91.00
14798;DHT22;7490;63.708;20.368;2022-09-17T13:58:22;16.00;90.80
14798;DHT22;7490;63.708;20.368;2022-09-17T14:19:26;15.90;90.70
14798;DHT22;7490;63.708;20.368;2022-09-17T14:38:23;16.00;90.80
14798;DHT22;7490;63.708;20.368;2022-09-17T14:41:04;16.00;90.70
14798;DHT22;7490;63.708;20.368;2022-09-17T14:44:07;16.00;90.80
14798;DHT22;7490;63.708;20.368;2022-09-17T14:49:25;16.00;90.60
14798;DHT22;7490;63.708;20.368;2022-09-17T14:51:55;15.90;90.50
14798;DHT22;7490;63.708;20.368;2022-09-17T14:54:25;15.90;90.50
14798;DHT22;7490;63.708;20.368;2022-09-17T14:59:49;15.90;90.60
14798;DHT22;7490;63.708;20.368;2022-09-17T15:04:58;15.90;90.30
14798;DHT22;7490;63.708;20.368;2022-09-17T15:07:27;15.90;90.50
14798;DHT22;7490;63.708;20.368;2022-09-17T15:09:53;16.00;90.40
14798;DHT22;7490;63.708;20.368;2022-09-17T15:12:26;16.00;90.30
14798;DHT22;7490;63.708;20.368;2022-09-17T15:14:54;16.10;90.20
14798;DHT22;7490;63.708;20.368;2022-09-17T15:17:20;16.10;90.00
14798;DHT22;7490;63.708;20.368;2022-09-17T15:19:55;16.10;90.00
14798;DHT22;7490;63.708;20.368;2022-09-17T15:22:27;16.10;89.70
14798;DHT22;7490;63.708;20.368;2022-09-17T15:25:02;16.10;89.70
14798;DHT22;7490;63.708;20.368;2022-09-17T15:27:35;16.10;89.70
14798;DHT22;7490;63.708;20.368;2022-09-17T15:30:16;16.10;89.70
14798;DHT22;7490;63.708;20.368;2022-09-17T15:32:54;16.10;89.50
14798;DHT22;7490;63.708;20.368;2022-09-17T15:35:26;16.10;89.30
14798;DHT22;7490;63.708;20.368;2022-09-17T15:38:03;16.10;89.30
14798;DHT22;7490;63.708;20.368;2022-09-17T15:40:43;16.10;89.30
14798;DHT22;7490;63.708;20.368;2022-09-17T15:43:34;16.10;89.10
14798;DHT22;7490;63.708;20.368;2022-09-17T15:46:35;16.10;88.90
14798;DHT22;7490;63.708;20.368;2022-09-17T15:49:01;16.10;88.90
14798;DHT22;7490;63.708;20.368;2022-09-17T15:51:30;16.00;88.80
14798;DHT22;7490;63.708;20.368;2022-09-17T15:54:03;16.00;88.90
14798;DHT22;7490;63.708;20.368;2022-09-17T15:59:00;15.90;88.90
14798;DHT22;7490;63.708;20.368;2022-09-17T16:04:07;15.90;89.00
14798;DHT22;7490;63.708;20.368;2022-09-17T16:06:35;15.80;88.90
14798;DHT22;7490;63.708;20.368;2022-09-17T16:09:01;15.80;89.10
14798;DHT22;7490;63.708;20.368;2022-09-17T16:11:29;15.80;89.30
14798;DHT22;7490;63.708;20.368;2022-09-17T16:13:57;15.80;89.30
14798;DHT22;7490;63.708;20.368;2022-09-17T16:16:35;15.80;89.30
14798;DHT22;7490;63.708;20.368;2022-09-17T16:19:02;15.80;89.30
14798;DHT22;7490;63.708;20.368;2022-09-17T16:21:28;15.80;89.40
14798;DHT22;7490;63.708;20.368;2022-09-17T16:23:53;15.80;89.60
14798;DHT22;7490;63.708;20.368;2022-09-17T16:26:32;15.80;89.70
14798;DHT22;7490;63.708;20.368;2022-09-17T16:29:04;15.80;89.80
14798;DHT22;7490;63.708;20.368;2022-09-17T16:31:32;15.80;89.80
14798;DHT22;7490;63.708;20.368;2022-09-17T16:33:58;15.70;89.80
14798;DHT22;7490;63.708;20.368;2022-09-17T16:36:25;15.70;89.70
14798;DHT22;7490;63.708;20.368;2022-09-17T16:38:51;15.70;89.80
14798;DHT22;7490;63.708;20.368;2022-09-17T16:41:17;15.60;89.80
14798;DHT22;7490;63.708;20.368;2022-09-17T16:43:43;15.50;89.90
14798;DHT22;7490;63.708;20.368;2022-09-17T16:46:10;15.50;90.00
14798;DHT22;7490;63.708;20.368;2022-09-17T16:48:36;15.50;90.20
14798;DHT22;7490;63.708;20.368;2022-09-17T16:51:10;15.40;90.20
14798;DHT22;7490;63.708;20.368;2022-09-17T16:53:36;15.40;90.30
14798;DHT22;7490;63.708;20.368;2022-09-17T16:56:08;15.30;90.30
14798;DHT22;7490;63.708;20.368;2022-09-17T16:58:35;15.20;90.40
14798;DHT22;7490;63.708;20.368;2022-09-17T17:01:07;15.10;90.50
14798;DHT22;7490;63.708;20.368;2022-09-17T17:03:33;15.00;90.60
14798;DHT22;7490;63.708;20.368;2022-09-17T17:05:59;15.00;90.80
14798;DHT22;7490;63.708;20.368;2022-09-17T17:08:24;14.90;90.90
14798;DHT22;7490;63.708;20.368;2022-09-17T17:10:50;14.80;91.00
14798;DHT22;7490;63.708;20.368;2022-09-17T17:13:16;14.80;91.20
14798;DHT22;7490;63.708;20.368;2022-09-17T17:15:42;14.60;91.20
14798;DHT22;7490;63.708;20.368;2022-09-17T17:18:08;14.50;91.40
14798;DHT22;7490;63.708;20.368;2022-09-17T17:20:34;14.40;91.50
14798;DHT22;7490;63.708;20.368;2022-09-17T17:23:00;14.40;91.70
14798;DHT22;7490;63.708;20.368;2022-09-17T17:25:26;14.30;91.80
14798;DHT22;7490;63.708;20.368;2022-09-17T17:27:53;14.30;91.90
14798;DHT22;7490;63.708;20.368;2022-09-17T17:30:20;14.30;92.00
14798;DHT22;7490;63.708;20.368;2022-09-17T17:32:51;14.20;92.00
14798;DHT22;7490;63.708;20.368;2022-09-17T17:35:18;14.20;92.20
14798;DHT22;7490;63.708;20.368;2022-09-17T17:37:43;14.10;92.20
14798;DHT22;7490;63.708;20.368;2022-09-17T17:40:09;14.20;92.40
14798;DHT22;7490;63.708;20.368;2022-09-17T17:42:36;14.10;92.40
14798;DHT22;7490;63.708;20.368;2022-09-17T17:45:05;14.10;92.50
14798;DHT22;7490;63.708;20.368;2022-09-17T17:47:31;14.10;92.60
14798;DHT22;7490;63.708;20.368;2022-09-17T17:49:57;14.30;92.70
14798;DHT22;7490;63.708;20.368;2022-09-17T17:52:22;14.10;92.70
14798;DHT22;7490;63.708;20.368;2022-09-17T17:54:48;14.10;92.70
14798;DHT22;7490;63.708;20.368;2022-09-17T17:57:14;14.10;92.80
14798;DHT22;7490;63.708;20.368;2022-09-17T17:59:40;14.10;92.80
14798;DHT22;7490;63.708;20.368;2022-09-17T18:02:06;14.10;92.80
14798;DHT22;7490;63.708;20.368;2022-09-17T18:04:31;14.10;92.80
14798;DHT22;7490;63.708;20.368;2022-09-17T18:06:57;14.10;92.80
14798;DHT22;7490;63.708;20.368;2022-09-17T18:09:23;14.20;92.80
14798;DHT22;7490;63.708;20.368;2022-09-17T18:11:48;14.10;92.80
14798;DHT22;7490;63.708;20.368;2022-09-17T18:14:14;14.10;92.80
14798;DHT22;7490;63.708;20.368;2022-09-17T18:16:40;14.10;92.90
14798;DHT22;7490;63.708;20.368;2022-09-17T18:19:08;14.10;92.90
14798;DHT22;7490;63.708;20.368;2022-09-17T18:21:34;14.10;92.90
14798;DHT22;7490;63.708;20.368;2022-09-17T18:23:59;14.10;92.90
14798;DHT22;7490;63.708;20.368;2022-09-17T18:26:26;14.10;92.90
14798;DHT22;7490;63.708;20.368;2022-09-17T18:28:52;14.00;92.80
14798;DHT22;7490;63.708;20.368;2022-09-17T18:31:25;14.10;92.90
14798;DHT22;7490;63.708;20.368;2022-09-17T18:34:02;14.00;92.80
14798;DHT22;7490;63.708;20.368;2022-09-17T18:36:31;14.00;92.80
14798;DHT22;7490;63.708;20.368;2022-09-17T18:38:59;14.00;92.80
14798;DHT22;7490;63.708;20.368;2022-09-17T18:41:33;13.90;92.80
14798;DHT22;7490;63.708;20.368;2022-09-17T18:44:02;13.90;92.90
14798;DHT22;7490;63.708;20.368;2022-09-17T18:46:28;13.90;92.90
14798;DHT22;7490;63.708;20.368;2022-09-17T18:48:56;13.90;92.80
14798;DHT22;7490;63.708;20.368;2022-09-17T18:51:23;13.90;92.80
14798;DHT22;7490;63.708;20.368;2022-09-17T18:53:50;13.90;92.80
14798;DHT22;7490;63.708;20.368;2022-09-17T18:58:51;13.80;92.80
14798;DHT22;7490;63.708;20.368;2022-09-17T19:01:20;13.80;92.80
14798;DHT22;7490;63.708;20.368;2022-09-17T19:03:46;13.80;92.80
14798;DHT22;7490;63.708;20.368;2022-09-17T19:06:13;13.70;92.70
14798;DHT22;7490;63.708;20.368;2022-09-17T19:08:43;13.70;92.80
14798;DHT22;7490;63.708;20.368;2022-09-17T19:11:09;13.70;92.80
14798;DHT22;7490;63.708;20.368;2022-09-17T19:13:37;13.70;92.80
14798;DHT22;7490;63.708;20.368;2022-09-17T19:16:05;13.60;92.70
14798;DHT22;7490;63.708;20.368;2022-09-17T19:18:31;13.70;92.80
14798;DHT22;7490;63.708;20.368;2022-09-17T19:21:04;13.60;92.70
14798;DHT22;7490;63.708;20.368;2022-09-17T19:23:31;13.60;92.80
14798;DHT22;7490;63.708;20.368;2022-09-17T19:26:06;13.60;92.80
14798;DHT22;7490;63.708;20.368;2022-09-17T19:28:33;13.60;92.80
14798;DHT22;7490;63.708;20.368;2022-09-17T19:31:03;13.60;92.80
14798;DHT22;7490;63.708;20.368;2022-09-17T19:33:28;13.60;92.80
14798;DHT22;7490;63.708;20.368;2022-09-17T19:35:58;13.60;92.70
14798;DHT22;7490;63.708;20.368;2022-09-17T19:38:25;13.60;92.80